sensor_id;sensor_type;location;lat;lon;timestamp;temperature;humidity
23869;DHT22;12115;47.128;15.422;2023-09-08T00:01:19;14.90;99.90
23869;DHT22;12115;47.128;15.422;2023-09-08T00:03:46;14.90;99.90
23869;DHT22;12115;47.128;15.422;2023-09-08T00:06:13;14.90;99.90
23869;DHT22;12115;47.128;15.422;2023-09-08T00:08:40;14.90;99.90
23869;DHT22;12115;47.128;15.422;2023-09-08T00:11:08;14.90;99.90
23869;DHT22;12115;47.128;15.422;2023-09-08T00:13:35;14.80;99.90
23869;DHT22;12115;47.128;15.422;2023-09-08T00:16:02;14.80;99.90
23869;DHT22;12115;47.128;15.422;2023-09-08T00:18:29;14.70;99.90
23869;DHT22;12115;47.128;15.422;2023-09-08T00:20:56;14.70;99.90
23869;DHT22;12115;47.128;15.422;2023-09-08T00:23:23;14.60;99.90
23869;DHT22;12115;47.128;15.422;2023-09-08T00:25:50;14.60;99.90
23869;DHT22;12115;47.128;15.422;2023-09-08T00:28:17;14.60;99.90
23869;DHT22;12115;47.128;15.422;2023-09-08T00:30:44;14.60;99.90
23869;DHT22;12115;47.128;15.422;2023-09-08T00:33:11;14.50;99.90
23869;DHT22;12115;47.128;15.422;2023-09-08T00:35:44;14.50;99.90
23869;DHT22;12115;47.128;15.422;2023-09-08T00:38:11;14.50;99.90
23869;DHT22;12115;47.128;15.422;2023-09-08T00:40:38;14.40;99.90
23869;DHT22;12115;47.128;15.422;2023-09-08T00:43:05;14.40;99.90
23869;DHT22;12115;47.128;15.422;2023-09-08T00:45:41;14.40;99.90
23869;DHT22;12115;47.128;15.422;2023-09-08T00:48:09;14.30;99.90
23869;DHT22;12115;47.128;15.422;2023-09-08T00:50:37;14.30;99.90
23869;DHT22;12115;47.128;15.422;2023-09-08T00:53:06;14.30;99.90
23869;DHT22;12115;47.128;15.422;2023-09-08T00:55:34;14.30;99.90
23869;DHT22;12115;47.128;15.422;2023-09-08T00:58:02;14.20;99.90
23869;DHT22;12115;47.128;15.422;2023-09-08T01:00:29;14.20;99.90
23869;DHT22;12115;47.128;15.422;2023-09-08T01:02:56;14.10;99.90
23869;DHT22;12115;47.128;15.422;2023-09-08T01:05:23;14.10;99.90
23869;DHT22;12115;47.128;15.422;2023-09-08T01:07:51;14.10;99.90
23869;DHT22;12115;47.128;15.422;2023-09-08T01:10:18;14.10;99.90
23869;DHT22;12115;47.128;15.422;2023-09-08T01:12:46;14.10;99.90
23869;DHT22;12115;47.128;15.422;2023-09-08T01:15:13;14.10;99.90
23869;DHT22;12115;47.128;15.422;2023-09-08T01:17:40;14.00;99.90
23869;DHT22;12115;47.128;15.422;2023-09-08T01:25:27;14.00;99.90
23869;DHT22;12115;47.128;15.422;2023-09-08T01:27:58;13.90;99.90
23869;DHT22;12115;47.128;15.422;2023-09-08T01:30:28;13.90;99.90
23869;DHT22;12115;47.128;15.422;2023-09-08T01:32:59;13.90;99.90
23869;DHT22;12115;47.128;15.422;2023-09-08T01:35:30;13.80;99.90
23869;DHT22;12115;47.128;15.422;2023-09-08T01:37:59;13.80;99.90
23869;DHT22;12115;47.128;15.422;2023-09-08T01:40:26;13.80;99.90
23869;DHT22;12115;47.128;15.422;2023-09-08T01:42:53;13.80;99.90
23869;DHT22;12115;47.128;15.422;2023-09-08T01:45:22;13.70;99.90
23869;DHT22;12115;47.128;15.422;2023-09-08T01:47:49;13.70;99.90
23869;DHT22;12115;47.128;15.422;2023-09-08T01:50:16;13.70;99.90
23869;DHT22;12115;47.128;15.422;2023-09-08T01:52:48;13.60;99.90
23869;DHT22;12115;47.128;15.422;2023-09-08T01:55:15;13.60;99.90
23869;DHT22;12115;47.128;15.422;2023-09-08T01:57:45;13.50;99.90
23869;DHT22;12115;47.128;15.422;2023-09-08T02:00:13;13.50;99.90
23869;DHT22;12115;47.128;15.422;2023-09-08T02:02:40;13.50;99.90
23869;DHT22;12115;47.128;15.422;2023-09-08T02:05:08;13.50;99.90
23869;DHT22;12115;47.128;15.422;2023-09-08T02:07:35;13.50;99.90
23869;DHT22;12115;47.128;15.422;2023-09-08T02:10:03;13.50;99.90
23869;DHT22;12115;47.128;15.422;2023-09-08T02:12:30;13.50;99.90
23869;DHT22;12115;47.128;15.422;2023-09-08T02:15:00;13.40;99.90
23869;DHT22;12115;47.128;15.422;2023-09-08T02:17:29;13.40;99.90
23869;DHT22;12115;47.128;15.422;2023-09-08T02:19:58;13.40;99.90
23869;DHT22;12115;47.128;15.422;2023-09-08T02:22:25;13.40;99.90
23869;DHT22;12115;47.128;15.422;2023-09-08T02:24:52;13.40;99.90
23869;DHT22;12115;47.128;15.422;2023-09-08T02:27:19;13.30;99.90
23869;DHT22;12115;47.128;15.422;2023-09-08T02:29:48;13.40;99.90
23869;DHT22;12115;47.128;15.422;2023-09-08T02:32:15;13.30;99.90
23869;DHT22;12115;47.128;15.422;2023-09-08T02:34:42;13.30;99.90
23869;DHT22;12115;47.128;15.422;2023-09-08T02:37:11;13.30;99.90
23869;DHT22;12115;47.128;15.422;2023-09-08T02:39:38;13.20;99.90
23869;DHT22;12115;47.128;15.422;2023-09-08T02:42:06;13.20;99.90
23869;DHT22;12115;47.128;15.422;2023-09-08T02:44:33;13.20;99.90
23869;DHT22;12115;47.128;15.422;2023-09-08T02:47:00;13.20;99.90
23869;DHT22;12115;47.128;15.422;2023-09-08T02:49:27;13.20;99.90
23869;DHT22;12115;47.128;15.422;2023-09-08T02:51:54;13.20;99.90
23869;DHT22;12115;47.128;15.422;2023-09-08T02:54:21;13.10;99.90
23869;DHT22;12115;47.128;15.422;2023-09-08T02:56:48;13.10;99.90
23869;DHT22;12115;47.128;15.422;2023-09-08T02:59:15;13.10;99.90
23869;DHT22;12115;47.128;15.422;2023-09-08T03:01:42;13.10;99.90
23869;DHT22;12115;47.128;15.422;2023-09-08T03:04:09;13.10;99.90
23869;DHT22;12115;47.128;15.422;2023-09-08T03:06:36;13.00;99.90
23869;DHT22;12115;47.128;15.422;2023-09-08T03:09:03;13.10;99.90
23869;DHT22;12115;47.128;15.422;2023-09-08T03:11:30;13.00;99.90
23869;DHT22;12115;47.128;15.422;2023-09-08T03:13:57;13.00;99.90
23869;DHT22;12115;47.128;15.422;2023-09-08T03:16:24;13.00;99.90
23869;DHT22;12115;47.128;15.422;2023-09-08T03:18:51;13.00;99.90
23869;DHT22;12115;47.128;15.422;2023-09-08T03:21:18;13.00;99.90
23869;DHT22;12115;47.128;15.422;2023-09-08T03:23:46;12.90;99.90
23869;DHT22;12115;47.128;15.422;2023-09-08T03:26:13;12.90;99.90
23869;DHT22;12115;47.128;15.422;2023-09-08T03:28:42;12.90;99.90
23869;DHT22;12115;47.128;15.422;2023-09-08T03:31:09;12.90;99.90
23869;DHT22;12115;47.128;15.422;2023-09-08T03:33:36;12.80;99.90
23869;DHT22;12115;47.128;15.422;2023-09-08T03:36:05;12.80;99.90
23869;DHT22;12115;47.128;15.422;2023-09-08T03:38:33;12.80;99.90
23869;DHT22;12115;47.128;15.422;2023-09-08T03:41:01;12.80;99.90
23869;DHT22;12115;47.128;15.422;2023-09-08T03:43:38;12.80;99.90
23869;DHT22;12115;47.128;15.422;2023-09-08T03:46:06;12.80;99.90
23869;DHT22;12115;47.128;15.422;2023-09-08T03:48:33;12.80;99.90
23869;DHT22;12115;47.128;15.422;2023-09-08T03:51:00;12.80;99.90
23869;DHT22;12115;47.128;15.422;2023-09-08T03:53:27;12.70;99.90
23869;DHT22;12115;47.128;15.422;2023-09-08T03:55:54;12.70;99.90
23869;DHT22;12115;47.128;15.422;2023-09-08T03:58:21;12.70;99.90
23869;DHT22;12115;47.128;15.422;2023-09-08T04:00:48;12.70;99.90
23869;DHT22;12115;47.128;15.422;2023-09-08T04:03:15;12.70;99.90
23869;DHT22;12115;47.128;15.422;2023-09-08T04:05:42;12.60;99.90
23869;DHT22;12115;47.128;15.422;2023-09-08T04:08:09;12.60;99.90
23869;DHT22;12115;47.128;15.422;2023-09-08T04:10:36;12.60;99.90
23869;DHT22;12115;47.128;15.422;2023-09-08T04:13:04;12.60;99.90
23869;DHT22;12115;47.128;15.422;2023-09-08T04:15:32;12.60;99.90
23869;DHT22;12115;47.128;15.422;2023-09-08T04:17:59;12.60;99.90
23869;DHT22;12115;47.128;15.422;2023-09-08T04:20:26;12.60;99.90
23869;DHT22;12115;47.128;15.422;2023-09-08T04:22:53;12.60;99.90
23869;DHT22;12115;47.128;15.422;2023-09-08T04:25:21;12.50;99.90
23869;DHT22;12115;47.128;15.422;2023-09-08T04:27:48;12.50;99.90
23869;DHT22;12115;47.128;15.422;2023-09-08T04:30:15;12.50;99.90
23869;DHT22;12115;47.128;15.422;2023-09-08T04:32:43;12.50;99.90
23869;DHT22;12115;47.128;15.422;2023-09-08T04:35:11;12.50;99.90
23869;DHT22;12115;47.128;15.422;2023-09-08T04:37:46;12.50;99.90
23869;DHT22;12115;47.128;15.422;2023-09-08T04:40:44;12.50;99.90
23869;DHT22;12115;47.128;15.422;2023-09-08T04:43:17;12.50;99.90
23869;DHT22;12115;47.128;15.422;2023-09-08T04:45:46;12.50;99.90
23869;DHT22;12115;47.128;15.422;2023-09-08T04:48:13;12.40;99.90
23869;DHT22;12115;47.128;15.422;2023-09-08T04:50:40;12.40;99.90
23869;DHT22;12115;47.128;15.422;2023-09-08T04:53:08;12.40;99.90
23869;DHT22;12115;47.128;15.422;2023-09-08T04:55:35;12.40;99.90
23869;DHT22;12115;47.128;15.422;2023-09-08T04:58:03;12.40;99.90
23869;DHT22;12115;47.128;15.422;2023-09-08T05:00:31;12.40;99.90
23869;DHT22;12115;47.128;15.422;2023-09-08T05:03:01;12.40;99.90
23869;DHT22;12115;47.128;15.422;2023-09-08T05:05:28;12.40;99.90
23869;DHT22;12115;47.128;15.422;2023-09-08T05:07:55;12.50;99.90
23869;DHT22;12115;47.128;15.422;2023-09-08T05:10:24;12.40;99.90
23869;DHT22;12115;47.128;15.422;2023-09-08T05:12:51;12.50;99.90
23869;DHT22;12115;47.128;15.422;2023-09-08T05:15:23;12.50;99.90
23869;DHT22;12115;47.128;15.422;2023-09-08T05:17:55;12.50;99.90
23869;DHT22;12115;47.128;15.422;2023-09-08T05:20:25;12.50;99.90
23869;DHT22;12115;47.128;15.422;2023-09-08T05:22:57;12.60;99.90
23869;DHT22;12115;47.128;15.422;2023-09-08T05:25:26;12.60;99.90
23869;DHT22;12115;47.128;15.422;2023-09-08T05:27:56;12.60;99.90
23869;DHT22;12115;47.128;15.422;2023-09-08T05:30:25;12.70;99.90
23869;DHT22;12115;47.128;15.422;2023-09-08T05:33:00;12.70;99.90
23869;DHT22;12115;47.128;15.422;2023-09-08T05:35:29;12.70;99.90
23869;DHT22;12115;47.128;15.422;2023-09-08T05:38:02;12.80;99.90
23869;DHT22;12115;47.128;15.422;2023-09-08T05:40:35;12.80;99.90
23869;DHT22;12115;47.128;15.422;2023-09-08T05:43:03;12.80;99.90
23869;DHT22;12115;47.128;15.422;2023-09-08T05:45:34;12.90;99.90
23869;DHT22;12115;47.128;15.422;2023-09-08T05:48:03;12.90;99.90
23869;DHT22;12115;47.128;15.422;2023-09-08T05:50:31;12.90;99.90
23869;DHT22;12115;47.128;15.422;2023-09-08T05:52:58;13.10;99.90
23869;DHT22;12115;47.128;15.422;2023-09-08T05:55:25;13.10;99.90
23869;DHT22;12115;47.128;15.422;2023-09-08T05:57:52;13.20;99.90
23869;DHT22;12115;47.128;15.422;2023-09-08T06:00:20;13.30;99.90
23869;DHT22;12115;47.128;15.422;2023-09-08T06:02:49;13.30;99.90
23869;DHT22;12115;47.128;15.422;2023-09-08T06:05:17;13.40;99.90
23869;DHT22;12115;47.128;15.422;2023-09-08T06:07:44;13.50;99.90
23869;DHT22;12115;47.128;15.422;2023-09-08T06:10:28;13.60;99.90
23869;DHT22;12115;47.128;15.422;2023-09-08T06:12:54;13.70;99.90
23869;DHT22;12115;47.128;15.422;2023-09-08T06:15:22;13.80;99.90
23869;DHT22;12115;47.128;15.422;2023-09-08T06:17:52;13.90;99.90
23869;DHT22;12115;47.128;15.422;2023-09-08T06:20:19;14.00;99.90
23869;DHT22;12115;47.128;15.422;2023-09-08T06:22:46;14.10;99.90
23869;DHT22;12115;47.128;15.422;2023-09-08T06:25:13;14.20;99.90
23869;DHT22;12115;47.128;15.422;2023-09-08T06:27:40;14.40;99.90
23869;DHT22;12115;47.128;15.422;2023-09-08T06:30:08;14.40;99.90
23869;DHT22;12115;47.128;15.422;2023-09-08T06:32:35;14.60;99.90
23869;DHT22;12115;47.128;15.422;2023-09-08T06:35:03;14.70;99.90
23869;DHT22;12115;47.128;15.422;2023-09-08T06:37:35;14.80;99.90
23869;DHT22;12115;47.128;15.422;2023-09-08T06:40:04;14.90;99.90
23869;DHT22;12115;47.128;15.422;2023-09-08T06:42:32;15.10;99.90
23869;DHT22;12115;47.128;15.422;2023-09-08T06:45:09;15.10;99.90
23869;DHT22;12115;47.128;15.422;2023-09-08T06:47:37;15.30;99.90
23869;DHT22;12115;47.128;15.422;2023-09-08T06:50:04;15.40;99.90
23869;DHT22;12115;47.128;15.422;2023-09-08T06:52:31;15.50;99.90
23869;DHT22;12115;47.128;15.422;2023-09-08T06:54:58;15.50;99.90
23869;DHT22;12115;47.128;15.422;2023-09-08T06:57:25;15.60;99.90
23869;DHT22;12115;47.128;15.422;2023-09-08T06:59:52;15.80;99.90
23869;DHT22;12115;47.128;15.422;2023-09-08T07:02:20;15.90;99.90
23869;DHT22;12115;47.128;15.422;2023-09-08T07:04:47;16.00;99.90
23869;DHT22;12115;47.128;15.422;2023-09-08T07:07:14;16.00;99.90
23869;DHT22;12115;47.128;15.422;2023-09-08T07:09:42;16.10;99.90
23869;DHT22;12115;47.128;15.422;2023-09-08T07:12:09;16.30;99.90
23869;DHT22;12115;47.128;15.422;2023-09-08T07:14:36;16.40;99.90
23869;DHT22;12115;47.128;15.422;2023-09-08T07:17:05;16.50;99.90
23869;DHT22;12115;47.128;15.422;2023-09-08T07:19:32;16.80;99.90
23869;DHT22;12115;47.128;15.422;2023-09-08T07:21:59;17.00;99.90
23869;DHT22;12115;47.128;15.422;2023-09-08T07:24:26;16.90;99.90
23869;DHT22;12115;47.128;15.422;2023-09-08T07:26:53;17.10;99.90
23869;DHT22;12115;47.128;15.422;2023-09-08T07:29:20;17.20;99.90
23869;DHT22;12115;47.128;15.422;2023-09-08T07:31:47;17.40;99.90
23869;DHT22;12115;47.128;15.422;2023-09-08T07:34:14;17.50;99.90
23869;DHT22;12115;47.128;15.422;2023-09-08T07:36:41;17.50;99.90
23869;DHT22;12115;47.128;15.422;2023-09-08T07:39:08;17.80;99.90
23869;DHT22;12115;47.128;15.422;2023-09-08T07:41:35;17.90;99.90
23869;DHT22;12115;47.128;15.422;2023-09-08T07:44:07;18.20;99.90
23869;DHT22;12115;47.128;15.422;2023-09-08T07:46:34;18.40;99.90
23869;DHT22;12115;47.128;15.422;2023-09-08T07:49:01;18.50;99.90
23869;DHT22;12115;47.128;15.422;2023-09-08T07:51:28;18.60;99.90
23869;DHT22;12115;47.128;15.422;2023-09-08T07:53:55;18.70;99.90
23869;DHT22;12115;47.128;15.422;2023-09-08T07:56:22;18.90;99.90
23869;DHT22;12115;47.128;15.422;2023-09-08T07:58:49;19.20;99.90
23869;DHT22;12115;47.128;15.422;2023-09-08T08:01:16;19.40;99.90
23869;DHT22;12115;47.128;15.422;2023-09-08T08:03:43;19.60;99.90
23869;DHT22;12115;47.128;15.422;2023-09-08T08:06:10;19.70;99.90
23869;DHT22;12115;47.128;15.422;2023-09-08T08:08:37;19.80;99.90
23869;DHT22;12115;47.128;15.422;2023-09-08T08:11:23;19.80;99.90
23869;DHT22;12115;47.128;15.422;2023-09-08T08:13:50;19.90;99.90
23869;DHT22;12115;47.128;15.422;2023-09-08T08:16:17;19.90;99.90
23869;DHT22;12115;47.128;15.422;2023-09-08T08:18:45;20.10;99.90
23869;DHT22;12115;47.128;15.422;2023-09-08T08:21:12;20.20;99.90
23869;DHT22;12115;47.128;15.422;2023-09-08T08:23:39;20.40;99.90
23869;DHT22;12115;47.128;15.422;2023-09-08T08:26:06;20.90;99.90
23869;DHT22;12115;47.128;15.422;2023-09-08T08:28:34;21.10;99.90
23869;DHT22;12115;47.128;15.422;2023-09-08T08:31:02;21.00;99.90
23869;DHT22;12115;47.128;15.422;2023-09-08T08:33:29;20.90;99.90
23869;DHT22;12115;47.128;15.422;2023-09-08T08:35:57;20.90;99.90
23869;DHT22;12115;47.128;15.422;2023-09-08T08:38:24;21.20;99.90
23869;DHT22;12115;47.128;15.422;2023-09-08T08:40:51;21.30;99.90
23869;DHT22;12115;47.128;15.422;2023-09-08T08:43:18;21.50;99.90
23869;DHT22;12115;47.128;15.422;2023-09-08T08:45:47;21.70;99.90
23869;DHT22;12115;47.128;15.422;2023-09-08T08:48:15;21.60;99.90
23869;DHT22;12115;47.128;15.422;2023-09-08T08:50:45;21.80;99.90
23869;DHT22;12115;47.128;15.422;2023-09-08T08:53:17;22.00;99.90
23869;DHT22;12115;47.128;15.422;2023-09-08T08:55:44;22.10;99.90
23869;DHT22;12115;47.128;15.422;2023-09-08T08:58:13;22.30;99.90
23869;DHT22;12115;47.128;15.422;2023-09-08T09:00:41;22.30;99.90
23869;DHT22;12115;47.128;15.422;2023-09-08T09:03:09;22.50;99.90
23869;DHT22;12115;47.128;15.422;2023-09-08T09:05:41;22.50;99.90
23869;DHT22;12115;47.128;15.422;2023-09-08T09:08:17;22.60;99.90
23869;DHT22;12115;47.128;15.422;2023-09-08T09:10:45;22.70;99.90
23869;DHT22;12115;47.128;15.422;2023-09-08T09:13:12;22.60;99.90
23869;DHT22;12115;47.128;15.422;2023-09-08T09:15:39;22.70;99.90
23869;DHT22;12115;47.128;15.422;2023-09-08T09:18:08;22.80;99.90
23869;DHT22;12115;47.128;15.422;2023-09-08T09:20:35;23.00;99.90
23869;DHT22;12115;47.128;15.422;2023-09-08T09:23:02;23.10;99.90
23869;DHT22;12115;47.128;15.422;2023-09-08T09:25:31;22.90;99.90
23869;DHT22;12115;47.128;15.422;2023-09-08T09:28:00;23.00;99.90
23869;DHT22;12115;47.128;15.422;2023-09-08T09:30:28;23.10;99.90
23869;DHT22;12115;47.128;15.422;2023-09-08T09:33:12;23.30;99.90
23869;DHT22;12115;47.128;15.422;2023-09-08T09:38:11;23.70;99.90
23869;DHT22;12115;47.128;15.422;2023-09-08T09:40:39;23.80;99.90
23869;DHT22;12115;47.128;15.422;2023-09-08T09:43:07;23.80;99.90
23869;DHT22;12115;47.128;15.422;2023-09-08T09:45:35;24.10;99.90
23869;DHT22;12115;47.128;15.422;2023-09-08T09:48:03;24.30;99.90
23869;DHT22;12115;47.128;15.422;2023-09-08T09:50:39;24.40;99.90
23869;DHT22;12115;47.128;15.422;2023-09-08T09:53:14;24.20;99.90
23869;DHT22;12115;47.128;15.422;2023-09-08T09:55:43;24.20;99.90
23869;DHT22;12115;47.128;15.422;2023-09-08T09:58:10;24.30;99.90
23869;DHT22;12115;47.128;15.422;2023-09-08T10:00:38;24.10;99.90
23869;DHT22;12115;47.128;15.422;2023-09-08T10:03:08;24.20;99.90
23869;DHT22;12115;47.128;15.422;2023-09-08T10:05:37;24.30;99.90
23869;DHT22;12115;47.128;15.422;2023-09-08T10:08:04;24.50;99.90
23869;DHT22;12115;47.128;15.422;2023-09-08T10:10:32;24.80;99.90
23869;DHT22;12115;47.128;15.422;2023-09-08T10:13:06;24.90;99.90
23869;DHT22;12115;47.128;15.422;2023-09-08T10:15:34;25.10;99.90
23869;DHT22;12115;47.128;15.422;2023-09-08T10:18:04;25.10;99.90
23869;DHT22;12115;47.128;15.422;2023-09-08T10:20:33;25.10;97.90
23869;DHT22;12115;47.128;15.422;2023-09-08T10:23:07;25.00;98.20
23869;DHT22;12115;47.128;15.422;2023-09-08T10:25:42;25.10;99.90
23869;DHT22;12115;47.128;15.422;2023-09-08T10:28:12;25.30;99.90
23869;DHT22;12115;47.128;15.422;2023-09-08T10:30:40;25.40;99.90
23869;DHT22;12115;47.128;15.422;2023-09-08T10:33:08;25.40;99.40
23869;DHT22;12115;47.128;15.422;2023-09-08T10:35:36;25.50;98.90
23869;DHT22;12115;47.128;15.422;2023-09-08T10:40:50;25.60;97.70
23869;DHT22;12115;47.128;15.422;2023-09-08T10:43:18;25.50;96.40
23869;DHT22;12115;47.128;15.422;2023-09-08T10:45:48;25.40;96.60
23869;DHT22;12115;47.128;15.422;2023-09-08T10:48:15;25.50;99.90
23869;DHT22;12115;47.128;15.422;2023-09-08T10:50:43;25.60;98.60
23869;DHT22;12115;47.128;15.422;2023-09-08T10:53:16;25.80;97.10
23869;DHT22;12115;47.128;15.422;2023-09-08T10:55:47;25.80;96.10
23869;DHT22;12115;47.128;15.422;2023-09-08T10:58:34;25.90;96.30
23869;DHT22;12115;47.128;15.422;2023-09-08T11:01:05;26.00;96.60
23869;DHT22;12115;47.128;15.422;2023-09-08T11:06:09;26.00;94.70
23869;DHT22;12115;47.128;15.422;2023-09-08T11:08:46;26.00;95.30
23869;DHT22;12115;47.128;15.422;2023-09-08T11:11:14;25.90;94.50
23869;DHT22;12115;47.128;15.422;2023-09-08T11:13:41;25.80;95.40
23869;DHT22;12115;47.128;15.422;2023-09-08T11:16:13;25.90;95.20
23869;DHT22;12115;47.128;15.422;2023-09-08T11:18:40;26.10;95.90
23869;DHT22;12115;47.128;15.422;2023-09-08T11:21:09;26.30;93.60
23869;DHT22;12115;47.128;15.422;2023-09-08T11:23:38;26.10;94.10
23869;DHT22;12115;47.128;15.422;2023-09-08T11:26:05;26.10;94.30
23869;DHT22;12115;47.128;15.422;2023-09-08T11:28:33;26.30;94.20
23869;DHT22;12115;47.128;15.422;2023-09-08T11:31:01;26.10;92.90
23869;DHT22;12115;47.128;15.422;2023-09-08T11:33:34;26.10;93.70
23869;DHT22;12115;47.128;15.422;2023-09-08T11:36:01;26.20;94.00
23869;DHT22;12115;47.128;15.422;2023-09-08T11:38:29;26.40;94.50
23869;DHT22;12115;47.128;15.422;2023-09-08T11:40:57;26.50;92.70
23869;DHT22;12115;47.128;15.422;2023-09-08T11:43:26;26.30;92.50
23869;DHT22;12115;47.128;15.422;2023-09-08T11:45:57;26.30;93.50
23869;DHT22;12115;47.128;15.422;2023-09-08T11:48:26;26.40;91.60
23869;DHT22;12115;47.128;15.422;2023-09-08T11:50:53;26.30;91.90
23869;DHT22;12115;47.128;15.422;2023-09-08T11:53:21;26.30;92.60
23869;DHT22;12115;47.128;15.422;2023-09-08T11:55:49;26.40;92.10
23869;DHT22;12115;47.128;15.422;2023-09-08T11:58:18;26.50;92.00
23869;DHT22;12115;47.128;15.422;2023-09-08T12:00:45;26.60;92.50
23869;DHT22;12115;47.128;15.422;2023-09-08T12:03:15;26.70;91.30
23869;DHT22;12115;47.128;15.422;2023-09-08T12:05:52;26.70;91.60
23869;DHT22;12115;47.128;15.422;2023-09-08T12:08:19;26.80;92.90
23869;DHT22;12115;47.128;15.422;2023-09-08T12:10:46;26.90;91.40
23869;DHT22;12115;47.128;15.422;2023-09-08T12:13:20;26.90;93.50
23869;DHT22;12115;47.128;15.422;2023-09-08T12:15:48;27.00;90.80
23869;DHT22;12115;47.128;15.422;2023-09-08T12:18:15;27.00;91.20
23869;DHT22;12115;47.128;15.422;2023-09-08T12:20:43;27.00;91.40
23869;DHT22;12115;47.128;15.422;2023-09-08T12:23:20;26.90;90.20
23869;DHT22;12115;47.128;15.422;2023-09-08T12:25:48;26.90;92.10
23869;DHT22;12115;47.128;15.422;2023-09-08T12:28:18;27.10;91.20
23869;DHT22;12115;47.128;15.422;2023-09-08T12:30:45;27.10;91.00
23869;DHT22;12115;47.128;15.422;2023-09-08T12:33:14;26.90;88.60
23869;DHT22;12115;47.128;15.422;2023-09-08T12:35:46;26.90;89.40
23869;DHT22;12115;47.128;15.422;2023-09-08T12:38:13;26.90;91.20
23869;DHT22;12115;47.128;15.422;2023-09-08T12:40:40;27.00;90.30
23869;DHT22;12115;47.128;15.422;2023-09-08T12:43:07;26.90;88.20
23869;DHT22;12115;47.128;15.422;2023-09-08T12:45:54;26.90;87.80
23869;DHT22;12115;47.128;15.422;2023-09-08T12:48:22;26.90;89.40
23869;DHT22;12115;47.128;15.422;2023-09-08T12:50:49;27.00;87.20
23869;DHT22;12115;47.128;15.422;2023-09-08T12:53:16;27.00;89.10
23869;DHT22;12115;47.128;15.422;2023-09-08T12:55:45;26.80;89.60
23869;DHT22;12115;47.128;15.422;2023-09-08T12:58:12;27.00;90.50
23869;DHT22;12115;47.128;15.422;2023-09-08T13:00:40;27.20;88.90
23869;DHT22;12115;47.128;15.422;2023-09-08T13:03:07;27.20;87.30
23869;DHT22;12115;47.128;15.422;2023-09-08T13:05:35;27.10;88.40
23869;DHT22;12115;47.128;15.422;2023-09-08T13:08:06;27.10;89.00
23869;DHT22;12115;47.128;15.422;2023-09-08T13:10:34;27.20;87.50
23869;DHT22;12115;47.128;15.422;2023-09-08T13:13:01;27.20;90.40
23869;DHT22;12115;47.128;15.422;2023-09-08T13:15:29;27.00;87.90
23869;DHT22;12115;47.128;15.422;2023-09-08T13:17:57;27.00;88.60
23869;DHT22;12115;47.128;15.422;2023-09-08T13:20:25;26.90;86.80
23869;DHT22;12115;47.128;15.422;2023-09-08T13:22:56;27.00;88.50
23869;DHT22;12115;47.128;15.422;2023-09-08T13:25:24;26.90;86.20
23869;DHT22;12115;47.128;15.422;2023-09-08T13:27:52;26.80;87.10
23869;DHT22;12115;47.128;15.422;2023-09-08T13:30:21;26.80;86.40
23869;DHT22;12115;47.128;15.422;2023-09-08T13:32:54;26.80;88.30
23869;DHT22;12115;47.128;15.422;2023-09-08T13:35:24;26.90;88.70
23869;DHT22;12115;47.128;15.422;2023-09-08T13:37:52;26.90;88.60
23869;DHT22;12115;47.128;15.422;2023-09-08T13:40:20;27.10;89.80
23869;DHT22;12115;47.128;15.422;2023-09-08T13:42:49;27.00;85.50
23869;DHT22;12115;47.128;15.422;2023-09-08T13:45:17;27.00;86.70
23869;DHT22;12115;47.128;15.422;2023-09-08T13:47:45;26.90;84.90
23869;DHT22;12115;47.128;15.422;2023-09-08T13:50:14;26.90;86.70
23869;DHT22;12115;47.128;15.422;2023-09-08T13:52:44;27.00;85.80
23869;DHT22;12115;47.128;15.422;2023-09-08T13:55:14;27.00;85.70
23869;DHT22;12115;47.128;15.422;2023-09-08T13:57:45;26.80;84.30
23869;DHT22;12115;47.128;15.422;2023-09-08T14:00:17;26.60;85.00
23869;DHT22;12115;47.128;15.422;2023-09-08T14:02:50;26.50;87.00
23869;DHT22;12115;47.128;15.422;2023-09-08T14:05:25;26.60;89.50
23869;DHT22;12115;47.128;15.422;2023-09-08T14:08:00;26.70;87.30
23869;DHT22;12115;47.128;15.422;2023-09-08T14:10:41;26.60;86.70
23869;DHT22;12115;47.128;15.422;2023-09-08T14:13:19;26.70;88.40
23869;DHT22;12115;47.128;15.422;2023-09-08T14:15:48;26.80;87.90
23869;DHT22;12115;47.128;15.422;2023-09-08T14:18:17;26.70;86.10
23869;DHT22;12115;47.128;15.422;2023-09-08T14:20:45;26.70;84.90
23869;DHT22;12115;47.128;15.422;2023-09-08T14:23:14;26.70;85.50
23869;DHT22;12115;47.128;15.422;2023-09-08T14:25:42;26.70;84.40
23869;DHT22;12115;47.128;15.422;2023-09-08T14:28:11;26.70;86.20
23869;DHT22;12115;47.128;15.422;2023-09-08T14:30:40;26.80;88.20
23869;DHT22;12115;47.128;15.422;2023-09-08T14:33:08;26.80;84.30
23869;DHT22;12115;47.128;15.422;2023-09-08T14:35:44;26.80;86.20
23869;DHT22;12115;47.128;15.422;2023-09-08T14:38:14;26.80;87.60
23869;DHT22;12115;47.128;15.422;2023-09-08T14:40:45;26.90;88.20
23869;DHT22;12115;47.128;15.422;2023-09-08T14:43:22;26.90;90.00
23869;DHT22;12115;47.128;15.422;2023-09-08T14:45:50;26.90;87.30
23869;DHT22;12115;47.128;15.422;2023-09-08T14:48:20;26.70;84.70
23869;DHT22;12115;47.128;15.422;2023-09-08T14:50:48;26.60;86.40
23869;DHT22;12115;47.128;15.422;2023-09-08T14:53:17;26.50;86.60
23869;DHT22;12115;47.128;15.422;2023-09-08T14:55:46;26.30;88.50
23869;DHT22;12115;47.128;15.422;2023-09-08T14:58:16;26.40;90.80
23869;DHT22;12115;47.128;15.422;2023-09-08T15:00:45;26.40;90.50
23869;DHT22;12115;47.128;15.422;2023-09-08T15:03:14;26.40;90.80
23869;DHT22;12115;47.128;15.422;2023-09-08T15:05:43;26.40;91.20
23869;DHT22;12115;47.128;15.422;2023-09-08T15:08:11;26.50;90.90
23869;DHT22;12115;47.128;15.422;2023-09-08T15:10:40;26.60;90.70
23869;DHT22;12115;47.128;15.422;2023-09-08T15:13:09;26.70;89.20
23869;DHT22;12115;47.128;15.422;2023-09-08T15:15:37;26.60;86.50
23869;DHT22;12115;47.128;15.422;2023-09-08T15:18:06;26.60;87.90
23869;DHT22;12115;47.128;15.422;2023-09-08T15:20:34;26.50;89.20
23869;DHT22;12115;47.128;15.422;2023-09-08T15:23:03;26.60;90.30
23869;DHT22;12115;47.128;15.422;2023-09-08T15:25:34;26.50;88.70
23869;DHT22;12115;47.128;15.422;2023-09-08T15:28:03;26.50;89.90
23869;DHT22;12115;47.128;15.422;2023-09-08T15:30:32;26.40;90.10
23869;DHT22;12115;47.128;15.422;2023-09-08T15:33:04;26.40;89.70
23869;DHT22;12115;47.128;15.422;2023-09-08T15:35:34;26.30;89.80
23869;DHT22;12115;47.128;15.422;2023-09-08T15:38:03;26.30;90.20